SWA1517 KMCO-KMIA
Flight info
| Callsign | SWA1517 |
|---|---|
| Flight time | 0h 57m |
| Altitude | 25000 |
| Route | DDANY3 DDANY CSTAL3 |
| Aircraft | B38M/M-SADE2E3GHIJ4J7P2RWZ/LB1D1 |
Departure
| Time | 2026-04-24 00:37 |
|---|---|
| Airport | Orlando International Airport (KMCO) |
Arrival
| Time | 2026-04-24 01:34 |
|---|---|
| Airport | Miami International Airport (KMIA) |
| Time | Latitude | Longitude | Altitude | Speed | Heading |
|---|---|---|---|---|---|
| 2026-04-24 00:22 | 28.43492 | -81.30339 | 103 ft | 0 kts | 36° |
| 2026-04-24 00:31 | 28.43484 | -81.30345 | 102 ft | 3 kts | 36° |
| 2026-04-24 00:31 | 28.43468 | -81.30358 | 103 ft | 3 kts | 29° |
| 2026-04-24 00:31 | 28.43450 | -81.30367 | 102 ft | 3 kts | 9° |
| 2026-04-24 00:32 | 28.43435 | -81.30366 | 102 ft | 3 kts | 318° |
| 2026-04-24 00:32 | 28.43430 | -81.30361 | 101 ft | 0 kts | 300° |
| 2026-04-24 00:34 | 28.43432 | -81.30363 | 102 ft | 2 kts | 300° |
| 2026-04-24 00:34 | 28.43467 | -81.30426 | 103 ft | 19 kts | 310° |
| 2026-04-24 00:34 | 28.43608 | -81.30418 | 103 ft | 25 kts | 38° |
| 2026-04-24 00:35 | 28.43726 | -81.30256 | 103 ft | 29 kts | 51° |
| 2026-04-24 00:35 | 28.43825 | -81.30029 | 104 ft | 35 kts | 98° |
| 2026-04-24 00:35 | 28.43640 | -81.29889 | 104 ft | 35 kts | 176° |
| 2026-04-24 00:35 | 28.43549 | -81.29785 | 106 ft | 21 kts | 88° |
| 2026-04-24 00:36 | 28.43551 | -81.29626 | 106 ft | 12 kts | 89° |
| 2026-04-24 00:36 | 28.43512 | -81.29587 | 107 ft | 10 kts | 181° |
| 2026-04-24 00:36 | 28.43326 | -81.29585 | 110 ft | 61 kts | 179° |
| 2026-04-24 00:36 | 28.42628 | -81.29578 | 102 ft | 136 kts | 180° |
| 2026-04-24 00:37 | 28.41562 | -81.29572 | 495 ft | 160 kts | 175° |
| 2026-04-24 00:37 | 28.40393 | -81.29541 | 1207 ft | 173 kts | 172° |
| 2026-04-24 00:37 | 28.39094 | -81.29478 | 1753 ft | 202 kts | 173° |
| 2026-04-24 00:37 | 28.37700 | -81.29053 | 2476 ft | 215 kts | 148° |
| 2026-04-24 00:38 | 28.36381 | -81.28086 | 3194 ft | 235 kts | 144° |
| 2026-04-24 00:38 | 28.35006 | -81.26999 | 4132 ft | 244 kts | 144° |
| 2026-04-24 00:38 | 28.33685 | -81.25720 | 4995 ft | 257 kts | 134° |
| 2026-04-24 00:38 | 28.32415 | -81.24196 | 5793 ft | 271 kts | 133° |
| 2026-04-24 00:39 | 28.31112 | -81.22616 | 6702 ft | 279 kts | 133° |
| 2026-04-24 00:39 | 28.29774 | -81.20992 | 6959 ft | 283 kts | 133° |
| 2026-04-24 00:39 | 28.28429 | -81.19358 | 6982 ft | 283 kts | 134° |
| 2026-04-24 00:39 | 28.27102 | -81.17746 | 7048 ft | 285 kts | 133° |
| 2026-04-24 00:40 | 28.25746 | -81.16100 | 7888 ft | 284 kts | 134° |
| 2026-04-24 00:40 | 28.24390 | -81.14453 | 8887 ft | 289 kts | 133° |
| 2026-04-24 00:40 | 28.22999 | -81.12763 | 9809 ft | 295 kts | 134° |
| 2026-04-24 00:40 | 28.21609 | -81.11073 | 10585 ft | 305 kts | 134° |
| 2026-04-24 00:41 | 28.20114 | -81.09256 | 11067 ft | 325 kts | 134° |
| 2026-04-24 00:41 | 28.18524 | -81.07323 | 11496 ft | 345 kts | 133° |
| 2026-04-24 00:41 | 28.16851 | -81.05289 | 12053 ft | 359 kts | 133° |
| 2026-04-24 00:41 | 28.15132 | -81.03200 | 12805 ft | 364 kts | 134° |
| 2026-04-24 00:42 | 28.13390 | -81.01081 | 13626 ft | 370 kts | 134° |
| 2026-04-24 00:42 | 28.11623 | -80.98932 | 14338 ft | 375 kts | 134° |
| 2026-04-24 00:42 | 28.09830 | -80.96752 | 15123 ft | 379 kts | 134° |
| 2026-04-24 00:42 | 28.08050 | -80.94587 | 15856 ft | 383 kts | 134° |
| 2026-04-24 00:43 | 28.06224 | -80.92365 | 16569 ft | 387 kts | 134° |
| 2026-04-24 00:43 | 28.04356 | -80.90090 | 17283 ft | 391 kts | 134° |
| 2026-04-24 00:43 | 28.02467 | -80.87856 | 18002 ft | 394 kts | 139° |
| 2026-04-24 00:43 | 28.00397 | -80.85805 | 18643 ft | 398 kts | 140° |
| 2026-04-24 00:44 | 27.98343 | -80.83749 | 19240 ft | 401 kts | 140° |
| 2026-04-24 00:44 | 27.96247 | -80.81630 | 19832 ft | 405 kts | 140° |
| 2026-04-24 00:44 | 27.94140 | -80.79489 | 20417 ft | 410 kts | 140° |
| 2026-04-24 00:44 | 27.92009 | -80.77318 | 20993 ft | 414 kts | 140° |
| 2026-04-24 00:45 | 27.89862 | -80.75132 | 21558 ft | 417 kts | 140° |
| 2026-04-24 00:45 | 27.87692 | -80.72923 | 22115 ft | 421 kts | 140° |
| 2026-04-24 00:45 | 27.85501 | -80.70692 | 22683 ft | 425 kts | 140° |
| 2026-04-24 00:45 | 27.83288 | -80.68441 | 23225 ft | 429 kts | 140° |
| 2026-04-24 00:46 | 27.81058 | -80.66175 | 23743 ft | 433 kts | 140° |
| 2026-04-24 00:46 | 27.78801 | -80.63882 | 24194 ft | 437 kts | 140° |
| 2026-04-24 00:46 | 27.76537 | -80.61584 | 24671 ft | 439 kts | 141° |
| 2026-04-24 00:46 | 27.74247 | -80.59259 | 24981 ft | 445 kts | 140° |
| 2026-04-24 00:47 | 27.71963 | -80.56942 | 25060 ft | 452 kts | 140° |
| 2026-04-24 00:47 | 27.69590 | -80.54537 | 25061 ft | 463 kts | 140° |
| 2026-04-24 00:47 | 27.67147 | -80.52127 | 25060 ft | 470 kts | 146° |
| 2026-04-24 00:47 | 27.64304 | -80.50302 | 25069 ft | 470 kts | 161° |
| 2026-04-24 00:48 | 27.61234 | -80.48990 | 25070 ft | 475 kts | 162° |
| 2026-04-24 00:48 | 27.58131 | -80.47702 | 25085 ft | 475 kts | 163° |
| 2026-04-24 00:48 | 27.55022 | -80.46441 | 25081 ft | 475 kts | 163° |
| 2026-04-24 00:48 | 27.51904 | -80.45196 | 25082 ft | 475 kts | 163° |
| 2026-04-24 00:49 | 27.48789 | -80.43960 | 25083 ft | 475 kts | 163° |
| 2026-04-24 00:49 | 27.45671 | -80.42726 | 25081 ft | 475 kts | 163° |
| 2026-04-24 00:49 | 27.42558 | -80.41495 | 25081 ft | 475 kts | 163° |
| 2026-04-24 00:49 | 27.39440 | -80.40262 | 25075 ft | 475 kts | 163° |
| 2026-04-24 00:50 | 27.36318 | -80.39029 | 25073 ft | 475 kts | 163° |
| 2026-04-24 00:50 | 27.33201 | -80.37798 | 25074 ft | 475 kts | 163° |
| 2026-04-24 00:50 | 27.30087 | -80.36570 | 25073 ft | 475 kts | 163° |
| 2026-04-24 00:50 | 27.26973 | -80.35342 | 25074 ft | 475 kts | 163° |
| 2026-04-24 00:51 | 27.23857 | -80.34114 | 25080 ft | 474 kts | 163° |
| 2026-04-24 00:51 | 27.20732 | -80.32890 | 25083 ft | 474 kts | 164° |
| 2026-04-24 00:51 | 27.17611 | -80.31678 | 25083 ft | 474 kts | 163° |
| 2026-04-24 00:51 | 27.14498 | -80.30468 | 25082 ft | 474 kts | 163° |
| 2026-04-24 00:52 | 27.11416 | -80.29270 | 25084 ft | 474 kts | 163° |
| 2026-04-24 00:52 | 27.08363 | -80.28084 | 24877 ft | 458 kts | 163° |
| 2026-04-24 00:52 | 27.05354 | -80.26914 | 24248 ft | 455 kts | 163° |
| 2026-04-24 00:52 | 27.02372 | -80.25758 | 23605 ft | 453 kts | 163° |
| 2026-04-24 00:53 | 26.99386 | -80.24601 | 22697 ft | 454 kts | 163° |
| 2026-04-24 00:53 | 26.96411 | -80.23449 | 22022 ft | 447 kts | 163° |
| 2026-04-24 00:53 | 26.93536 | -80.22335 | 21434 ft | 429 kts | 163° |
| 2026-04-24 00:53 | 26.90733 | -80.21250 | 20842 ft | 425 kts | 163° |
| 2026-04-24 00:54 | 26.87939 | -80.20169 | 20214 ft | 423 kts | 163° |
| 2026-04-24 00:54 | 26.85150 | -80.19120 | 19558 ft | 423 kts | 164° |
| 2026-04-24 00:54 | 26.82368 | -80.18087 | 19002 ft | 420 kts | 163° |
| 2026-04-24 00:54 | 26.79633 | -80.17070 | 18771 ft | 403 kts | 164° |
| 2026-04-24 00:55 | 26.77042 | -80.16106 | 18552 ft | 382 kts | 165° |
| 2026-04-24 00:55 | 26.74580 | -80.15190 | 18331 ft | 363 kts | 165° |
| 2026-04-24 00:55 | 26.72240 | -80.14320 | 18114 ft | 347 kts | 165° |
| 2026-04-24 00:55 | 26.69877 | -80.13604 | 17585 ft | 357 kts | 169° |
| 2026-04-24 00:56 | 26.67440 | -80.12950 | 17240 ft | 363 kts | 169° |
| 2026-04-24 00:56 | 26.65001 | -80.12281 | 16832 ft | 367 kts | 169° |
| 2026-04-24 00:56 | 26.62529 | -80.11593 | 16454 ft | 366 kts | 168° |
| 2026-04-24 00:56 | 26.60057 | -80.10914 | 16038 ft | 364 kts | 169° |
| 2026-04-24 00:57 | 26.57585 | -80.10300 | 15614 ft | 362 kts | 170° |
| 2026-04-24 00:57 | 26.55131 | -80.09687 | 15230 ft | 360 kts | 169° |
| 2026-04-24 00:57 | 26.50269 | -80.08468 | 14455 ft | 355 kts | 169° |
| 2026-04-24 00:58 | 26.47859 | -80.07862 | 14051 ft | 353 kts | 169° |
| 2026-04-24 00:58 | 26.45465 | -80.07298 | 13615 ft | 351 kts | 171° |
| 2026-04-24 00:58 | 26.43070 | -80.06788 | 13224 ft | 348 kts | 171° |
| 2026-04-24 00:58 | 26.40723 | -80.06282 | 13061 ft | 338 kts | 171° |
| 2026-04-24 00:59 | 26.38463 | -80.05717 | 12947 ft | 328 kts | 168° |
| 2026-04-24 00:59 | 26.36284 | -80.05124 | 12815 ft | 317 kts | 168° |
| 2026-04-24 00:59 | 26.34167 | -80.04555 | 12688 ft | 310 kts | 168° |
| 2026-04-24 00:59 | 26.32092 | -80.03993 | 12553 ft | 311 kts | 168° |
| 2026-04-24 01:00 | 26.29987 | -80.03416 | 12420 ft | 310 kts | 168° |
| 2026-04-24 01:00 | 26.27892 | -80.02841 | 12297 ft | 310 kts | 168° |
| 2026-04-24 01:00 | 26.25786 | -80.02354 | 12149 ft | 307 kts | 179° |
| 2026-04-24 01:00 | 26.23698 | -80.02623 | 12021 ft | 301 kts | 195° |
| 2026-04-24 01:01 | 26.21639 | -80.03079 | 11912 ft | 303 kts | 193° |
| 2026-04-24 01:01 | 26.19576 | -80.03530 | 11776 ft | 301 kts | 193° |
| 2026-04-24 01:01 | 26.17524 | -80.03988 | 11651 ft | 300 kts | 193° |
| 2026-04-24 01:01 | 26.15483 | -80.04449 | 11512 ft | 299 kts | 194° |
| 2026-04-24 01:02 | 26.13442 | -80.04915 | 11385 ft | 299 kts | 193° |
| 2026-04-24 01:02 | 26.11393 | -80.05381 | 11258 ft | 299 kts | 194° |
| 2026-04-24 01:02 | 26.09355 | -80.05847 | 11136 ft | 299 kts | 194° |
| 2026-04-24 01:02 | 26.07322 | -80.06313 | 11027 ft | 298 kts | 194° |
| 2026-04-24 01:03 | 26.05297 | -80.06835 | 10807 ft | 298 kts | 195° |
| 2026-04-24 01:03 | 26.03280 | -80.07362 | 10545 ft | 297 kts | 195° |
| 2026-04-24 01:03 | 26.01279 | -80.07880 | 10314 ft | 292 kts | 195° |
| 2026-04-24 01:03 | 25.99359 | -80.08377 | 10064 ft | 282 kts | 195° |
| 2026-04-24 01:04 | 25.97449 | -80.08870 | 9833 ft | 282 kts | 196° |
| 2026-04-24 01:04 | 25.95538 | -80.09363 | 9568 ft | 281 kts | 195° |
| 2026-04-24 01:04 | 25.93631 | -80.09864 | 9325 ft | 281 kts | 197° |
| 2026-04-24 01:04 | 25.91931 | -80.10833 | 9015 ft | 274 kts | 223° |
| 2026-04-24 01:05 | 25.90619 | -80.12356 | 8811 ft | 272 kts | 228° |
| 2026-04-24 01:05 | 25.89328 | -80.13896 | 8621 ft | 272 kts | 229° |
| 2026-04-24 01:05 | 25.88287 | -80.15620 | 8356 ft | 268 kts | 251° |
| 2026-04-24 01:05 | 25.87996 | -80.17645 | 8150 ft | 266 kts | 268° |
| 2026-04-24 01:06 | 25.87906 | -80.19711 | 7945 ft | 269 kts | 268° |
| 2026-04-24 01:06 | 25.87810 | -80.21784 | 7448 ft | 268 kts | 268° |
| 2026-04-24 01:06 | 25.87727 | -80.23848 | 6963 ft | 266 kts | 268° |
| 2026-04-24 01:06 | 25.87651 | -80.25893 | 6500 ft | 264 kts | 269° |
| 2026-04-24 01:07 | 25.87595 | -80.27917 | 6030 ft | 260 kts | 272° |
| 2026-04-24 01:07 | 25.88026 | -80.29815 | 5660 ft | 260 kts | 297° |
| 2026-04-24 01:07 | 25.88870 | -80.31607 | 5392 ft | 264 kts | 298° |
| 2026-04-24 01:07 | 25.89728 | -80.33427 | 5150 ft | 267 kts | 298° |
| 2026-04-24 01:08 | 25.90589 | -80.35234 | 4884 ft | 260 kts | 299° |
| 2026-04-24 01:08 | 25.91427 | -80.36978 | 4606 ft | 252 kts | 299° |
| 2026-04-24 01:08 | 25.92243 | -80.38665 | 4315 ft | 243 kts | 299° |
| 2026-04-24 01:08 | 25.93032 | -80.40294 | 4067 ft | 235 kts | 300° |
| 2026-04-24 01:09 | 25.93623 | -80.41950 | 3710 ft | 232 kts | 277° |
| 2026-04-24 01:09 | 25.93554 | -80.43717 | 3340 ft | 227 kts | 250° |
| 2026-04-24 01:09 | 25.92724 | -80.45103 | 3176 ft | 208 kts | 214° |
| 2026-04-24 01:09 | 25.91465 | -80.45696 | 3031 ft | 192 kts | 186° |
| 2026-04-24 01:10 | 25.90128 | -80.45866 | 3026 ft | 196 kts | 179° |
| 2026-04-24 01:10 | 25.88780 | -80.45794 | 2991 ft | 192 kts | 158° |
| 2026-04-24 01:10 | 25.87704 | -80.45033 | 2913 ft | 186 kts | 131° |
| 2026-04-24 01:10 | 25.86923 | -80.43908 | 2741 ft | 179 kts | 120° |
| 2026-04-24 01:11 | 25.86305 | -80.42753 | 2503 ft | 169 kts | 118° |
| 2026-04-24 01:11 | 25.86253 | -80.42651 | 2483 ft | 169 kts | 118° |
| 2026-04-24 01:30 | 25.85968 | -80.42093 | 2379 ft | 167 kts | 117° |
| 2026-04-24 01:31 | 25.85404 | -80.40983 | 2162 ft | 163 kts | 117° |
| 2026-04-24 01:31 | 25.84847 | -80.39889 | 1954 ft | 162 kts | 117° |
| 2026-04-24 01:31 | 25.84304 | -80.38820 | 1763 ft | 155 kts | 117° |
| 2026-04-24 01:31 | 25.83783 | -80.37795 | 1546 ft | 150 kts | 118° |
| 2026-04-24 01:32 | 25.83282 | -80.36812 | 1358 ft | 142 kts | 118° |
| 2026-04-24 01:32 | 25.82806 | -80.35876 | 1169 ft | 138 kts | 118° |
| 2026-04-24 01:32 | 25.82335 | -80.34955 | 987 ft | 136 kts | 118° |
| 2026-04-24 01:32 | 25.81869 | -80.34055 | 803 ft | 136 kts | 118° |
| 2026-04-24 01:33 | 25.81407 | -80.33141 | 632 ft | 136 kts | 117° |
| 2026-04-24 01:33 | 25.80941 | -80.32216 | 460 ft | 137 kts | 118° |
| 2026-04-24 01:33 | 25.80473 | -80.31298 | 278 ft | 135 kts | 116° |
| 2026-04-24 01:33 | 25.80014 | -80.30384 | 88 ft | 136 kts | 118° |
| 2026-04-24 01:34 | 25.79570 | -80.29523 | 25 ft | 109 kts | 119° |
| 2026-04-24 01:34 | 25.79316 | -80.29030 | 22 ft | 52 kts | 120° |
| 2026-04-24 01:34 | 25.79141 | -80.28690 | 24 ft | 44 kts | 120° |
| 2026-04-24 01:34 | 25.79120 | -80.28456 | 24 ft | 13 kts | 61° |
| 2026-04-24 01:35 | 25.79130 | -80.28439 | 26 ft | 0 kts | 52° |
| 2026-04-24 01:35 | 25.79138 | -80.28428 | 25 ft | 7 kts | 50° |
| 2026-04-24 01:35 | 25.79147 | -80.28336 | 27 ft | 18 kts | 120° |
| 2026-04-24 01:35 | 25.79064 | -80.28176 | 29 ft | 24 kts | 119° |
| 2026-04-24 01:36 | 25.79093 | -80.28065 | 27 ft | 4 kts | 30° |
| 2026-04-24 01:36 | 25.79123 | -80.28045 | 27 ft | 5 kts | 56° |
| 2026-04-24 01:36 | 25.79118 | -80.28003 | 27 ft | 7 kts | 105° |
| 2026-04-24 01:36 | 25.79112 | -80.27977 | 27 ft | 0 kts | 104° |